Time,TemperatureF,DewpointF,PressureIn,WindDirection,WindDirectionDegrees,WindSpeedMPH,WindSpeedGustMPH,Humidity,HourlyPrecipIn,Conditions,Clouds,dailyrainin,SoftwareType,DateUTC
2013-09-01 00:01:00,83.2,66.4,29.74,South,186,7.0,9.0,57,0.00,,,0.00,Wunderground v.1.15,2013-09-01 05:01:00,
2013-09-01 00:06:00,83.2,66.4,29.74,SSW,193,7.0,9.0,57,0.00,,,0.00,Wunderground v.1.15,2013-09-01 05:06:00,
2013-09-01 00:12:00,83.3,66.5,29.74,SSW,194,7.0,10.0,57,0.00,,,0.00,Wunderground v.1.15,2013-09-01 05:12:00,
2013-09-01 00:18:00,83.1,66.3,29.74,South,184,7.0,10.0,57,0.00,,,0.00,Wunderground v.1.15,2013-09-01 05:18:00,
2013-09-01 00:24:00,83.0,66.2,29.74,SSW,200,7.0,11.0,57,0.00,,,0.00,Wunderground v.1.15,2013-09-01 05:24:00,
2013-09-01 00:29:00,83.0,66.2,29.73,South,179,7.0,11.0,57,0.00,,,0.00,Wunderground v.1.15,2013-09-01 05:29:00,
2013-09-01 00:35:00,82.7,66.4,29.74,South,185,7.0,9.0,58,0.00,,,0.00,Wunderground v.1.15,2013-09-01 05:35:00,
2013-09-01 00:40:00,82.6,66.3,29.74,South,189,6.0,8.0,58,0.00,,,0.00,Wunderground v.1.15,2013-09-01 05:40:00,
2013-09-01 00:45:00,82.3,66.5,29.74,SSW,193,7.0,9.0,59,0.00,,,0.00,Wunderground v.1.15,2013-09-01 05:45:00,
2013-09-01 00:52:00,82.0,66.7,29.74,South,182,6.0,10.0,60,0.00,,,0.00,Wunderground v.1.15,2013-09-01 05:52:00,
2013-09-01 00:57:00,81.6,66.8,29.74,South,191,6.0,10.0,61,0.00,,,0.00,Wunderground v.1.15,2013-09-01 05:57:00,
2013-09-01 01:03:00,81.3,66.6,29.74,SSW,198,6.0,8.0,61,0.00,,,0.00,Wunderground v.1.15,2013-09-01 06:03:00,
2013-09-01 01:09:00,81.1,66.8,29.73,South,180,6.0,9.0,62,0.00,,,0.00,Wunderground v.1.15,2013-09-01 06:09:00,
2013-09-01 01:15:00,80.8,67.0,29.74,South,184,6.0,9.0,63,0.00,,,0.00,Wunderground v.1.15,2013-09-01 06:15:00,
2013-09-01 01:21:00,80.3,67.0,29.73,South,190,6.0,8.0,64,0.00,,,0.00,Wunderground v.1.15,2013-09-01 06:21:00,
2013-09-01 01:27:00,80.0,66.7,29.73,South,175,6.0,9.0,64,0.00,,,0.00,Wunderground v.1.15,2013-09-01 06:27:00,
2013-09-01 01:32:00,79.8,67.0,29.73,South,186,6.0,7.0,65,0.00,,,0.00,Wunderground v.1.15,2013-09-01 06:32:00,
2013-09-01 01:37:00,79.8,67.0,29.73,South,185,6.0,8.0,65,0.00,,,0.00,Wunderground v.1.15,2013-09-01 06:37:00,
2013-09-01 01:42:00,79.6,66.8,29.73,South,182,6.0,7.0,65,0.00,,,0.00,Wunderground v.1.15,2013-09-01 06:42:00,
2013-09-01 01:47:00,79.3,67.0,29.73,South,181,6.0,8.0,66,0.00,,,0.00,Wunderground v.1.15,2013-09-01 06:47:00,
2013-09-01 01:52:00,79.2,66.9,29.73,South,188,6.0,7.0,66,0.00,,,0.00,Wunderground v.1.15,2013-09-01 06:52:00,
2013-09-01 01:57:00,79.2,66.9,29.73,South,188,6.0,8.0,66,0.00,,,0.00,Wunderground v.1.15,2013-09-01 06:57:00,
2013-09-01 02:02:00,79.2,66.9,29.73,South,189,6.0,9.0,66,0.00,,,0.00,Wunderground v.1.15,2013-09-01 07:02:00,
2013-09-01 02:08:00,79.1,67.2,29.73,South,176,6.0,9.0,67,0.00,,,0.00,Wunderground v.1.15,2013-09-01 07:08:00,
2013-09-01 02:13:00,78.7,67.2,29.73,South,176,6.0,7.0,68,0.00,,,0.00,Wunderground v.1.15,2013-09-01 07:13:00,
2013-09-01 02:18:00,78.5,67.1,29.73,South,178,5.0,7.0,68,0.00,,,0.00,Wunderground v.1.15,2013-09-01 07:18:00,
2013-09-01 02:24:00,78.4,67.0,29.73,South,175,5.0,6.0,68,0.00,,,0.00,Wunderground v.1.15,2013-09-01 07:24:00,
2013-09-01 02:29:00,78.1,67.1,29.73,South,182,4.0,6.0,69,0.00,,,0.00,Wunderground v.1.15,2013-09-01 07:29:00,
2013-09-01 02:34:00,78.1,67.1,29.73,South,178,4.0,6.0,69,0.00,,,0.00,Wunderground v.1.15,2013-09-01 07:34:00,
2013-09-01 02:39:00,78.1,67.1,29.73,South,185,5.0,6.0,69,0.00,,,0.00,Wunderground v.1.15,2013-09-01 07:39:00,
2013-09-01 02:44:00,77.9,67.3,29.73,South,182,5.0,6.0,70,0.00,,,0.00,Wunderground v.1.15,2013-09-01 07:44:00,
2013-09-01 02:50:00,77.8,67.2,29.73,South,180,5.0,5.0,70,0.00,,,0.00,Wunderground v.1.15,2013-09-01 07:50:00,
2013-09-01 02:55:00,77.8,67.2,29.73,South,176,5.0,6.0,70,0.00,,,0.00,Wunderground v.1.15,2013-09-01 07:55:00,
2013-09-01 03:01:00,77.8,67.2,29.73,South,175,5.0,7.0,70,0.00,,,0.00,Wunderground v.1.15,2013-09-01 08:01:00,
2013-09-01 03:07:00,77.5,66.9,29.73,South,174,6.0,7.0,70,0.00,,,0.00,Wunderground v.1.15,2013-09-01 08:07:00,
2013-09-01 03:13:00,77.4,67.3,29.73,South,180,5.0,6.0,71,0.00,,,0.00,Wunderground v.1.15,2013-09-01 08:13:00,
2013-09-01 03:18:00,77.0,66.9,29.73,South,186,5.0,6.0,71,0.00,,,0.00,Wunderground v.1.15,2013-09-01 08:18:00,
2013-09-01 03:24:00,76.5,67.2,29.73,South,191,5.0,7.0,73,0.00,,,0.00,Wunderground v.1.15,2013-09-01 08:24:00,
2013-09-01 03:29:00,76.6,67.3,29.73,SSW,193,5.0,8.0,73,0.00,,,0.00,Wunderground v.1.15,2013-09-01 08:29:00,
2013-09-01 03:34:00,76.6,67.3,29.72,South,184,6.0,8.0,73,0.00,,,0.00,Wunderground v.1.15,2013-09-01 08:34:00,
2013-09-01 03:39:00,76.5,67.6,29.73,South,188,7.0,9.0,74,0.00,,,0.00,Wunderground v.1.15,2013-09-01 08:39:00,
2013-09-01 03:44:00,76.2,67.7,29.72,South,177,7.0,8.0,75,0.00,,,0.00,Wunderground v.1.15,2013-09-01 08:44:00,
2013-09-01 03:50:00,75.6,67.5,29.72,South,182,7.0,8.0,76,0.00,,,0.00,Wunderground v.1.15,2013-09-01 08:50:00,
2013-09-01 03:56:00,75.4,68.1,29.73,South,191,7.0,10.0,78,0.00,,,0.00,Wunderground v.1.15,2013-09-01 08:56:00,
2013-09-01 04:01:00,75.8,68.1,29.73,SSW,193,7.0,8.0,77,0.00,,,0.00,Wunderground v.1.15,2013-09-01 09:01:00,
2013-09-01 04:07:00,76.1,67.6,29.73,South,182,6.0,8.0,75,0.00,,,0.00,Wunderground v.1.15,2013-09-01 09:07:00,
2013-09-01 04:12:00,76.3,67.4,29.73,SSW,212,6.0,9.0,74,0.00,,,0.00,Wunderground v.1.15,2013-09-01 09:12:00,
2013-09-01 04:17:00,76.5,67.6,29.73,SSW,206,5.0,9.0,74,0.00,,,0.00,Wunderground v.1.15,2013-09-01 09:17:00,
2013-09-01 04:22:00,76.5,67.2,29.73,SSW,198,6.0,9.0,73,0.00,,,0.00,Wunderground v.1.15,2013-09-01 09:22:00,
2013-09-01 04:27:00,76.7,67.0,29.73,SW,223,6.0,11.0,72,0.00,,,0.00,Wunderground v.1.15,2013-09-01 09:27:00,
2013-09-01 04:32:00,76.9,67.2,29.74,SW,214,7.0,9.0,72,0.00,,,0.00,Wunderground v.1.15,2013-09-01 09:32:00,
2013-09-01 04:38:00,76.8,67.1,29.74,WSW,252,7.0,10.0,72,0.00,,,0.00,Wunderground v.1.15,2013-09-01 09:38:00,
2013-09-01 04:43:00,76.7,67.0,29.74,WSW,241,7.0,9.0,72,0.00,,,0.00,Wunderground v.1.15,2013-09-01 09:43:00,
2013-09-01 04:48:00,76.5,66.8,29.75,West,265,6.0,9.0,72,0.00,,,0.00,Wunderground v.1.15,2013-09-01 09:48:00,
2013-09-01 04:53:00,76.7,66.6,29.75,West,259,7.0,11.0,71,0.00,,,0.00,Wunderground v.1.15,2013-09-01 09:53:00,
2013-09-01 04:58:00,77.0,66.5,29.75,West,260,7.0,11.0,70,0.00,,,0.00,Wunderground v.1.15,2013-09-01 09:58:00,
2013-09-01 05:03:00,77.1,66.6,29.74,West,269,7.0,11.0,70,0.00,,,0.00,Wunderground v.1.15,2013-09-01 10:03:00,
2013-09-01 05:08:00,77.1,66.6,29.74,West,264,7.0,11.0,70,0.00,,,0.00,Wunderground v.1.15,2013-09-01 10:08:00,
2013-09-01 05:14:00,76.9,66.4,29.74,WNW,282,6.0,9.0,70,0.00,,,0.00,Wunderground v.1.15,2013-09-01 10:14:00,
2013-09-01 05:20:00,76.8,66.3,29.74,West,274,5.0,5.0,70,0.00,,,0.00,Wunderground v.1.15,2013-09-01 10:20:00,
2013-09-01 05:26:00,76.9,66.0,29.75,West,261,5.0,8.0,69,0.00,,,0.00,Wunderground v.1.15,2013-09-01 10:26:00,
2013-09-01 05:31:00,76.9,66.0,29.74,WNW,303,5.0,6.0,69,0.00,,,0.00,Wunderground v.1.15,2013-09-01 10:31:00,
2013-09-01 05:37:00,78.5,66.2,29.74,NW,323,8.0,22.0,66,0.00,,,0.00,Wunderground v.1.15,2013-09-01 10:37:00,
2013-09-01 05:42:00,79.6,66.3,29.74,NNW,330,10.0,17.0,64,0.00,,,0.00,Wunderground v.1.15,2013-09-01 10:42:00,
2013-09-01 05:47:00,79.8,66.1,29.74,NW,316,10.0,17.0,63,0.00,,,0.00,Wunderground v.1.15,2013-09-01 10:47:00,
2013-09-01 05:52:00,79.8,66.1,29.75,WNW,290,10.0,17.0,63,0.00,,,0.00,Wunderground v.1.15,2013-09-01 10:52:00,
2013-09-01 05:58:00,79.8,66.5,29.75,NNW,331,10.0,18.0,64,0.00,,,0.00,Wunderground v.1.15,2013-09-01 10:58:00,
2013-09-01 06:04:00,80.3,66.6,29.75,NW,316,13.0,24.0,63,0.00,,,0.00,Wunderground v.1.15,2013-09-01 11:04:00,
2013-09-01 06:10:00,80.4,66.6,29.75,NW,318,13.0,13.0,63,0.00,,,0.00,Wunderground v.1.15,2013-09-01 11:10:00,
2013-09-01 06:15:00,80.3,66.6,29.75,NW,319,11.0,17.0,63,0.00,,,0.00,Wunderground v.1.15,2013-09-01 11:15:00,
2013-09-01 06:20:00,80.3,66.6,29.75,NW,305,10.0,10.0,63,0.00,,,0.00,Wunderground v.1.15,2013-09-01 11:20:00,
2013-09-01 06:25:00,80.2,66.9,29.75,NW,321,10.0,17.0,64,0.00,,,0.00,Wunderground v.1.15,2013-09-01 11:25:00,
2013-09-01 06:30:00,80.1,66.8,29.75,NNW,327,10.0,14.0,64,0.00,,,0.00,Wunderground v.1.15,2013-09-01 11:30:00,
2013-09-01 06:35:00,79.9,67.1,29.75,NNW,337,11.0,16.0,65,0.00,,,0.00,Wunderground v.1.15,2013-09-01 11:35:00,
2013-09-01 06:40:00,79.7,67.3,29.75,NW,325,11.0,11.0,66,0.00,,,0.00,Wunderground v.1.15,2013-09-01 11:40:00,
2013-09-01 06:45:00,79.4,67.0,29.75,NNW,336,10.0,14.0,66,0.00,,,0.00,Wunderground v.1.15,2013-09-01 11:45:00,
2013-09-01 06:51:00,79.1,67.2,29.75,NNW,340,8.0,11.0,67,0.00,,,0.00,Wunderground v.1.15,2013-09-01 11:51:00,
2013-09-01 06:56:00,79.0,67.1,29.75,NNW,347,8.0,11.0,67,0.00,,,0.00,Wunderground v.1.15,2013-09-01 11:56:00,
2013-09-01 07:01:00,78.9,67.4,29.75,North,5,7.0,11.0,68,0.00,,,0.00,Wunderground v.1.15,2013-09-01 12:01:00,
2013-09-01 07:07:00,78.7,67.2,29.75,NNW,336,6.0,11.0,68,0.00,,,0.00,Wunderground v.1.15,2013-09-01 12:07:00,
2013-09-01 07:12:00,78.4,67.4,29.76,NNW,346,5.0,6.0,69,0.00,,,0.00,Wunderground v.1.15,2013-09-01 12:12:00,
2013-09-01 07:17:00,78.2,67.2,29.76,NNW,331,5.0,7.0,69,0.00,,,0.00,Wunderground v.1.15,2013-09-01 12:17:00,
2013-09-01 07:22:00,78.0,67.4,29.76,NNW,333,5.0,5.0,70,0.00,,,0.00,Wunderground v.1.15,2013-09-01 12:22:00,
2013-09-01 07:27:00,78.0,67.4,29.76,North,360,4.0,5.0,70,0.00,,,0.00,Wunderground v.1.15,2013-09-01 12:27:00,
2013-09-01 07:32:00,77.8,67.2,29.77,NNW,338,4.0,4.0,70,0.00,,,0.00,Wunderground v.1.15,2013-09-01 12:32:00,
2013-09-01 07:37:00,77.7,67.5,29.77,NNW,340,3.0,4.0,71,0.00,,,0.00,Wunderground v.1.15,2013-09-01 12:37:00,
2013-09-01 07:43:00,77.6,67.4,29.78,North,355,3.0,3.0,71,0.00,,,0.00,Wunderground v.1.15,2013-09-01 12:43:00,
2013-09-01 07:48:00,77.4,67.7,29.78,North,355,2.0,3.0,72,0.00,,,0.00,Wunderground v.1.15,2013-09-01 12:48:00,
2013-09-01 07:54:00,77.3,67.6,29.78,North,5,2.0,5.0,72,0.00,,,0.00,Wunderground v.1.15,2013-09-01 12:54:00,
2013-09-01 07:59:00,77.3,67.6,29.78,North,355,3.0,5.0,72,0.00,,,0.00,Wunderground v.1.15,2013-09-01 12:59:00,
2013-09-01 08:04:00,77.4,67.7,29.78,NNE,16,4.0,7.0,72,0.00,,,0.00,Wunderground v.1.15,2013-09-01 13:04:00,
2013-09-01 08:09:00,77.4,67.7,29.79,North,355,5.0,8.0,72,0.00,,,0.00,Wunderground v.1.15,2013-09-01 13:09:00,
2013-09-01 08:15:00,77.4,67.7,29.79,NNE,16,7.0,10.0,72,0.00,,,0.00,Wunderground v.1.15,2013-09-01 13:15:00,
2013-09-01 08:20:00,77.5,67.8,29.79,NNE,19,7.0,7.0,72,0.00,,,0.00,Wunderground v.1.15,2013-09-01 13:20:00,
2013-09-01 08:26:00,77.5,67.4,29.79,NNE,30,6.0,8.0,71,0.00,,,0.00,Wunderground v.1.15,2013-09-01 13:26:00,
2013-09-01 08:31:00,77.6,67.4,29.79,North,5,6.0,8.0,71,0.00,,,0.00,Wunderground v.1.15,2013-09-01 13:31:00,
2013-09-01 08:36:00,77.7,67.5,29.80,North,5,7.0,9.0,71,0.00,,,0.00,Wunderground v.1.15,2013-09-01 13:36:00,
2013-09-01 08:41:00,77.8,67.6,29.80,North,360,7.0,10.0,71,0.00,,,0.00,Wunderground v.1.15,2013-09-01 13:41:00,
2013-09-01 08:47:00,78.1,67.5,29.81,North,351,8.0,11.0,70,0.00,,,0.00,Wunderground v.1.15,2013-09-01 13:47:00,
2013-09-01 08:53:00,77.9,68.1,29.82,NW,326,8.0,9.0,72,0.00,,,0.00,Wunderground v.1.15,2013-09-01 13:53:00,
2013-09-01 08:59:00,77.7,68.4,29.82,NW,319,5.0,9.0,73,0.00,,,0.00,Wunderground v.1.15,2013-09-01 13:59:00,
2013-09-01 09:05:00,77.6,68.7,29.82,NW,313,6.0,9.0,74,0.00,,,0.00,Wunderground v.1.15,2013-09-01 14:05:00,
2013-09-01 09:11:00,77.5,68.2,29.83,NNW,338,7.0,9.0,73,0.00,,,0.00,Wunderground v.1.15,2013-09-01 14:11:00,
2013-09-01 09:17:00,77.4,68.1,29.83,NNW,337,6.0,11.0,73,0.00,,,0.00,Wunderground v.1.15,2013-09-01 14:17:00,
2013-09-01 09:23:00,77.5,68.2,29.84,North,349,7.0,9.0,73,0.00,,,0.00,Wunderground v.1.15,2013-09-01 14:23:00,
2013-09-01 09:29:00,77.7,68.4,29.83,North,5,9.0,16.0,73,0.00,,,0.00,Wunderground v.1.15,2013-09-01 14:29:00,
2013-09-01 09:34:00,77.6,68.3,29.83,North,9,11.0,16.0,73,0.00,,,0.00,Wunderground v.1.15,2013-09-01 14:34:00,
2013-09-01 09:39:00,77.5,68.6,29.83,NNE,19,10.0,16.0,74,0.00,,,0.00,Wunderground v.1.15,2013-09-01 14:39:00,
2013-09-01 09:44:00,77.6,68.7,29.83,NNE,15,10.0,13.0,74,0.00,,,0.00,Wunderground v.1.15,2013-09-01 14:44:00,
2013-09-01 09:49:00,77.9,68.5,29.83,North,355,9.0,13.0,73,0.00,,,0.00,Wunderground v.1.15,2013-09-01 14:49:00,
2013-09-01 09:55:00,78.3,68.5,29.84,NW,315,9.0,14.0,72,0.00,,,0.00,Wunderground v.1.15,2013-09-01 14:55:00,
2013-09-01 10:00:00,78.7,68.5,29.84,NNW,338,9.0,9.0,71,0.00,,,0.00,Wunderground v.1.15,2013-09-01 15:00:00,
2013-09-01 10:05:00,78.6,68.0,29.83,North,360,10.0,17.0,70,0.00,,,0.00,Wunderground v.1.15,2013-09-01 15:05:00,
2013-09-01 10:11:00,78.4,68.2,29.83,North,355,12.0,15.0,71,0.00,,,0.00,Wunderground v.1.15,2013-09-01 15:11:00,
2013-09-01 10:16:00,78.4,68.6,29.84,North,360,10.0,15.0,72,0.00,,,0.00,Wunderground v.1.15,2013-09-01 15:16:00,
2013-09-01 10:22:00,78.6,68.4,29.85,NW,315,7.0,10.0,71,0.00,,,0.00,Wunderground v.1.15,2013-09-01 15:22:00,
2013-09-01 10:28:00,79.1,68.5,29.86,SW,229,6.0,11.0,70,0.00,,,0.00,Wunderground v.1.15,2013-09-01 15:28:00,
2013-09-01 10:33:00,79.5,68.4,29.86,West,259,6.0,10.0,69,0.00,,,0.00,Wunderground v.1.15,2013-09-01 15:33:00,
2013-09-01 10:38:00,79.8,68.3,29.86,WNW,302,7.0,12.0,68,0.00,,,0.00,Wunderground v.1.15,2013-09-01 15:38:00,
2013-09-01 10:44:00,79.9,68.0,29.86,NW,311,6.0,10.0,67,0.00,,,0.00,Wunderground v.1.15,2013-09-01 15:44:00,
2013-09-01 10:50:00,80.0,67.6,29.86,NW,320,5.0,5.0,66,0.00,,,0.00,Wunderground v.1.15,2013-09-01 15:50:00,
2013-09-01 10:56:00,80.0,67.6,29.86,NW,325,4.0,7.0,66,0.00,,,0.00,Wunderground v.1.15,2013-09-01 15:56:00,
2013-09-01 11:01:00,80.0,68.1,29.86,NNW,340,4.0,7.0,67,0.00,,,0.00,Wunderground v.1.15,2013-09-01 16:01:00,
2013-09-01 11:07:00,79.9,68.0,29.87,NNW,341,5.0,8.0,67,0.00,,,0.00,Wunderground v.1.15,2013-09-01 16:07:00,
2013-09-01 11:12:00,80.0,67.6,29.88,North,355,6.0,9.0,66,0.00,,,0.00,Wunderground v.1.15,2013-09-01 16:12:00,
2013-09-01 11:17:00,80.3,67.9,29.88,NNW,328,6.0,11.0,66,0.00,,,0.00,Wunderground v.1.15,2013-09-01 16:17:00,
2013-09-01 11:23:00,80.5,67.6,29.88,North,350,6.0,11.0,65,0.00,,,0.00,Wunderground v.1.15,2013-09-01 16:23:00,
2013-09-01 11:28:00,80.4,67.6,29.88,North,9,7.0,11.0,65,0.00,,,0.00,Wunderground v.1.15,2013-09-01 16:28:00,
2013-09-01 11:33:00,80.3,67.9,29.87,North,5,8.0,12.0,66,0.00,,,0.00,Wunderground v.1.15,2013-09-01 16:33:00,
2013-09-01 11:39:00,80.2,67.8,29.87,North,5,8.0,12.0,66,0.00,,,0.00,Wunderground v.1.15,2013-09-01 16:39:00,
2013-09-01 11:44:00,80.2,68.2,29.87,NNW,333,7.0,10.0,67,0.00,,,0.00,Wunderground v.1.15,2013-09-01 16:44:00,
2013-09-01 11:49:00,80.0,67.6,29.87,North,11,7.0,11.0,66,0.00,,,0.00,Wunderground v.1.15,2013-09-01 16:49:00,
2013-09-01 11:55:00,79.7,67.8,29.87,NNE,13,8.0,12.0,67,0.00,,,0.00,Wunderground v.1.15,2013-09-01 16:55:00,
2013-09-01 12:01:00,79.5,68.0,29.86,NNE,23,9.0,10.0,68,0.00,,,0.00,Wunderground v.1.15,2013-09-01 17:01:00,
2013-09-01 12:06:00,79.4,67.9,29.87,NNE,17,8.0,11.0,68,0.00,,,0.00,Wunderground v.1.15,2013-09-01 17:06:00,
2013-09-01 12:12:00,79.2,68.1,29.87,NNE,29,7.0,9.0,69,0.00,,,0.00,Wunderground v.1.15,2013-09-01 17:12:00,
2013-09-01 12:18:00,79.1,68.1,29.87,North,11,7.0,10.0,69,0.00,,,0.00,Wunderground v.1.15,2013-09-01 17:18:00,
2013-09-01 12:23:00,79.0,68.0,29.87,North,5,7.0,7.0,69,0.00,,,0.00,Wunderground v.1.15,2013-09-01 17:23:00,
2013-09-01 12:29:00,78.9,67.9,29.87,NNE,24,6.0,8.0,69,0.00,,,0.00,Wunderground v.1.15,2013-09-01 17:29:00,
2013-09-01 12:35:00,79.0,68.4,29.87,North,360,6.0,8.0,70,0.00,,,0.00,Wunderground v.1.15,2013-09-01 17:35:00,
2013-09-01 12:41:00,79.0,68.4,29.86,North,5,5.0,6.0,70,0.00,,,0.00,Wunderground v.1.15,2013-09-01 17:41:00,
2013-09-01 12:47:00,79.1,68.1,29.86,North,10,6.0,9.0,69,0.00,,,0.00,Wunderground v.1.15,2013-09-01 17:47:00,
2013-09-01 12:53:00,79.4,68.8,29.86,North,11,6.0,6.0,70,0.00,,,0.00,Wunderground v.1.15,2013-09-01 17:53:00,
2013-09-01 12:59:00,79.5,68.4,29.85,NE,41,5.0,8.0,69,0.00,,,0.00,Wunderground v.1.15,2013-09-01 17:59:00,
2013-09-01 13:04:00,79.7,69.5,29.86,NE,47,5.0,7.0,71,0.00,,,0.00,Wunderground v.1.15,2013-09-01 18:04:00,
2013-09-01 13:10:00,80.0,68.9,29.86,NE,36,5.0,7.0,69,0.00,,,0.00,Wunderground v.1.15,2013-09-01 18:10:00,
2013-09-01 13:16:00,80.2,69.9,29.86,NNE,30,5.0,8.0,71,0.00,,,0.00,Wunderground v.1.15,2013-09-01 18:16:00,
2013-09-01 13:21:00,80.2,69.1,29.86,NNE,22,6.0,9.0,69,0.00,,,0.00,Wunderground v.1.15,2013-09-01 18:21:00,
2013-09-01 13:27:00,80.1,69.4,29.86,NE,36,7.0,9.0,70,0.00,,,0.00,Wunderground v.1.15,2013-09-01 18:27:00,
2013-09-01 13:32:00,80.0,68.9,29.86,North,5,7.0,10.0,69,0.00,,,0.00,Wunderground v.1.15,2013-09-01 18:32:00,
2013-09-01 13:38:00,80.0,68.9,29.86,NE,35,7.0,10.0,69,0.00,,,0.00,Wunderground v.1.15,2013-09-01 18:38:00,
2013-09-01 13:43:00,79.9,68.8,29.86,NNE,15,7.0,8.0,69,0.00,,,0.00,Wunderground v.1.15,2013-09-01 18:43:00,
2013-09-01 13:49:00,79.9,69.7,29.86,North,355,5.0,8.0,71,0.00,,,0.00,Wunderground v.1.15,2013-09-01 18:49:00,
2013-09-01 13:54:00,80.1,69.8,29.86,NNE,15,4.0,7.0,71,0.00,,,0.00,Wunderground v.1.15,2013-09-01 18:54:00,
2013-09-01 13:59:00,80.1,69.4,29.86,North,360,5.0,9.0,70,0.00,,,0.00,Wunderground v.1.15,2013-09-01 18:59:00,
2013-09-01 14:04:00,80.3,70.4,29.86,NNE,19,6.0,9.0,72,0.00,,,0.00,Wunderground v.1.15,2013-09-01 19:04:00,
2013-09-01 14:09:00,81.0,69.9,29.86,North,5,6.0,9.0,69,0.00,,,0.00,Wunderground v.1.15,2013-09-01 19:09:00,
2013-09-01 14:15:00,81.6,70.4,29.86,North,5,6.0,7.0,69,0.00,,,0.00,Wunderground v.1.15,2013-09-01 19:15:00,
2013-09-01 14:20:00,82.2,70.6,29.86,NNE,22,5.0,7.0,68,0.00,,,0.00,Wunderground v.1.15,2013-09-01 19:20:00,
2013-09-01 14:26:00,82.0,70.4,29.86,NE,41,4.0,8.0,68,0.00,,,0.00,Wunderground v.1.15,2013-09-01 19:26:00,
2013-09-01 14:31:00,82.4,70.8,29.86,NNW,344,4.0,7.0,68,0.00,,,0.00,Wunderground v.1.15,2013-09-01 19:31:00,
2013-09-01 14:37:00,82.8,71.2,29.86,NNW,338,4.0,9.0,68,0.00,,,0.00,Wunderground v.1.15,2013-09-01 19:37:00,
2013-09-01 14:42:00,83.1,70.6,29.86,North,351,4.0,5.0,66,0.00,,,0.00,Wunderground v.1.15,2013-09-01 19:42:00,
2013-09-01 14:48:00,83.6,71.0,29.85,NNE,14,2.0,9.0,66,0.00,,,0.00,Wunderground v.1.15,2013-09-01 19:48:00,
2013-09-01 14:53:00,83.9,71.3,29.85,NNE,33,3.0,6.0,66,0.00,,,0.00,Wunderground v.1.15,2013-09-01 19:53:00,
2013-09-01 14:59:00,84.1,71.5,29.85,NE,45,5.0,9.0,66,0.00,,,0.00,Wunderground v.1.15,2013-09-01 19:59:00,
2013-09-01 15:04:00,84.0,71.0,29.85,NNE,12,6.0,8.0,65,0.00,,,0.00,Wunderground v.1.15,2013-09-01 20:04:00,
2013-09-01 15:09:00,83.9,70.9,29.85,NE,35,6.0,8.0,65,0.00,,,0.00,Wunderground v.1.15,2013-09-01 20:09:00,
2013-09-01 15:15:00,84.3,71.7,29.85,North,5,6.0,11.0,66,0.00,,,0.00,Wunderground v.1.15,2013-09-01 20:15:00,
2013-09-01 15:20:00,84.6,72.0,29.85,North,355,7.0,8.0,66,0.00,,,0.00,Wunderground v.1.15,2013-09-01 20:20:00,
2013-09-01 15:26:00,84.8,72.6,29.85,ENE,63,6.0,10.0,67,0.00,,,0.00,Wunderground v.1.15,2013-09-01 20:26:00,
2013-09-01 15:31:00,85.0,71.9,29.85,NE,36,6.0,11.0,65,0.00,,,0.00,Wunderground v.1.15,2013-09-01 20:31:00,
2013-09-01 15:37:00,85.0,71.5,29.85,North,10,7.0,12.0,64,0.00,,,0.00,Wunderground v.1.15,2013-09-01 20:37:00,
2013-09-01 15:42:00,85.2,71.6,29.85,NNW,331,7.0,11.0,64,0.00,,,0.00,Wunderground v.1.15,2013-09-01 20:42:00,
2013-09-01 15:48:00,85.4,71.8,29.85,NE,34,7.0,12.0,64,0.00,,,0.00,Wunderground v.1.15,2013-09-01 20:48:00,
2013-09-01 15:53:00,85.4,71.8,29.84,North,360,8.0,13.0,64,0.00,,,0.00,Wunderground v.1.15,2013-09-01 20:53:00,
2013-09-01 15:58:00,85.2,72.1,29.84,NNW,333,8.0,13.0,65,0.00,,,0.00,Wunderground v.1.15,2013-09-01 20:58:00,
2013-09-01 16:04:00,85.2,71.6,29.84,NE,52,8.0,13.0,64,0.00,,,0.00,Wunderground v.1.15,2013-09-01 21:04:00,
2013-09-01 16:09:00,85.1,71.5,29.84,NNE,25,8.0,13.0,64,0.00,,,0.00,Wunderground v.1.15,2013-09-01 21:09:00,
2013-09-01 16:15:00,85.4,71.4,29.84,NNE,26,8.0,13.0,63,0.00,,,0.00,Wunderground v.1.15,2013-09-01 21:15:00,
2013-09-01 16:20:00,85.5,71.0,29.84,NNE,17,8.0,15.0,62,0.00,,,0.00,Wunderground v.1.15,2013-09-01 21:20:00,
2013-09-01 16:26:00,85.6,70.6,29.84,North,355,9.0,15.0,61,0.00,,,0.00,Wunderground v.1.15,2013-09-01 21:26:00,
2013-09-01 16:31:00,85.7,70.7,29.84,NE,41,6.0,7.0,61,0.00,,,0.00,Wunderground v.1.15,2013-09-01 21:31:00,
2013-09-01 16:36:00,86.2,71.6,29.84,NE,35,5.0,12.0,62,0.00,,,0.00,Wunderground v.1.15,2013-09-01 21:36:00,
2013-09-01 16:42:00,86.3,72.2,29.84,NNE,17,7.0,9.0,63,0.00,,,0.00,Wunderground v.1.15,2013-09-01 21:42:00,
2013-09-01 16:48:00,86.1,72.5,29.84,NE,36,8.0,12.0,64,0.00,,,0.00,Wunderground v.1.15,2013-09-01 21:48:00,
2013-09-01 16:54:00,86.2,72.1,29.84,NE,34,8.0,12.0,63,0.00,,,0.00,Wunderground v.1.15,2013-09-01 21:54:00,
2013-09-01 16:59:00,86.3,73.1,29.84,NNE,25,7.0,12.0,65,0.00,,,0.00,Wunderground v.1.15,2013-09-01 21:59:00,
2013-09-01 17:05:00,86.6,72.0,29.84,NNE,29,7.0,11.0,62,0.00,,,0.00,Wunderground v.1.15,2013-09-01 22:05:00,
2013-09-01 17:11:00,86.9,72.3,29.83,NE,49,6.0,7.0,62,0.00,,,0.00,Wunderground v.1.15,2013-09-01 22:11:00,
2013-09-01 17:17:00,87.2,72.1,29.83,North,360,6.0,10.0,61,0.00,,,0.00,Wunderground v.1.15,2013-09-01 22:17:00,
2013-09-01 17:22:00,87.5,71.9,29.83,NNW,348,7.0,14.0,60,0.00,,,0.00,Wunderground v.1.15,2013-09-01 22:22:00,
2013-09-01 17:28:00,87.4,72.3,29.83,North,360,7.0,14.0,61,0.00,,,0.00,Wunderground v.1.15,2013-09-01 22:28:00,
2013-09-01 17:33:00,87.0,72.4,29.83,NNE,13,6.0,9.0,62,0.00,,,0.00,Wunderground v.1.15,2013-09-01 22:33:00,
2013-09-01 17:38:00,86.8,72.7,29.83,NE,41,6.0,10.0,63,0.00,,,0.00,Wunderground v.1.15,2013-09-01 22:38:00,
2013-09-01 17:44:00,87.2,72.6,29.83,NE,36,7.0,10.0,62,0.00,,,0.00,Wunderground v.1.15,2013-09-01 22:44:00,
2013-09-01 17:49:00,87.4,72.3,29.83,NNE,14,7.0,13.0,61,0.00,,,0.00,Wunderground v.1.15,2013-09-01 22:49:00,
2013-09-01 17:55:00,88.0,71.9,29.83,NNE,25,8.0,11.0,59,0.00,,,0.00,Wunderground v.1.15,2013-09-01 22:55:00,
2013-09-01 18:01:00,88.3,71.6,29.83,NNE,16,8.0,10.0,58,0.00,,,0.00,Wunderground v.1.15,2013-09-01 23:01:00,
2013-09-01 18:06:00,88.3,72.2,29.83,NNE,24,9.0,17.0,59,0.00,,,0.00,Wunderground v.1.15,2013-09-01 23:06:00,
2013-09-01 18:12:00,88.2,72.6,29.83,NE,38,9.0,9.0,60,0.00,,,0.00,Wunderground v.1.15,2013-09-01 23:12:00,
2013-09-01 18:17:00,88.1,73.0,29.83,NNE,20,7.0,9.0,61,0.00,,,0.00,Wunderground v.1.15,2013-09-01 23:17:00,
2013-09-01 18:22:00,87.9,71.3,29.83,North,11,8.0,13.0,58,0.00,,,0.00,Wunderground v.1.15,2013-09-01 23:22:00,
2013-09-01 18:28:00,87.2,71.1,29.83,North,355,12.0,18.0,59,0.00,,,0.00,Wunderground v.1.15,2013-09-01 23:28:00,
2013-09-01 18:33:00,87.1,72.0,29.83,NNE,19,12.0,15.0,61,0.00,,,0.00,Wunderground v.1.15,2013-09-01 23:33:00,
2013-09-01 18:39:00,87.1,71.0,29.83,North,11,12.0,17.0,59,0.00,,,0.00,Wunderground v.1.15,2013-09-01 23:39:00,
2013-09-01 18:45:00,86.8,71.2,29.83,North,9,12.0,15.0,60,0.00,,,0.00,Wunderground v.1.15,2013-09-01 23:45:00,
2013-09-01 18:50:00,86.8,71.2,29.83,North,5,11.0,15.0,60,0.00,,,0.00,Wunderground v.1.15,2013-09-01 23:50:00,
2013-09-01 18:55:00,86.7,71.2,29.83,North,5,11.0,15.0,60,0.00,,,0.00,Wunderground v.1.15,2013-09-01 23:55:00,
2013-09-01 19:01:00,86.6,71.1,29.83,NNE,13,10.0,12.0,60,0.00,,,0.00,Wunderground v.1.15,2013-09-02 00:01:00,
2013-09-01 19:07:00,86.4,70.9,29.83,NNE,29,10.0,14.0,60,0.00,,,0.00,Wunderground v.1.15,2013-09-02 00:07:00,
2013-09-01 19:12:00,86.1,70.6,29.83,NNE,13,10.0,11.0,60,0.00,,,0.00,Wunderground v.1.15,2013-09-02 00:12:00,
2013-09-01 19:18:00,85.8,71.3,29.83,NNE,26,9.0,11.0,62,0.00,,,0.00,Wunderground v.1.15,2013-09-02 00:18:00,
2013-09-01 19:24:00,85.5,71.0,29.84,North,360,8.0,12.0,62,0.00,,,0.00,Wunderground v.1.15,2013-09-02 00:24:00,
2013-09-01 19:29:00,85.3,70.3,29.84,North,5,9.0,13.0,61,0.00,,,0.00,Wunderground v.1.15,2013-09-02 00:29:00,
2013-09-01 19:35:00,85.1,70.6,29.84,NNE,20,10.0,13.0,62,0.00,,,0.00,Wunderground v.1.15,2013-09-02 00:35:00,
2013-09-01 19:40:00,84.8,70.3,29.84,North,11,9.0,12.0,62,0.00,,,0.00,Wunderground v.1.15,2013-09-02 00:40:00,
2013-09-01 19:46:00,84.4,70.4,29.84,NNE,31,9.0,12.0,63,0.00,,,0.00,Wunderground v.1.15,2013-09-02 00:46:00,
2013-09-01 19:52:00,84.2,69.8,29.85,NNE,23,8.0,10.0,62,0.00,,,0.00,Wunderground v.1.15,2013-09-02 00:52:00,
2013-09-01 19:58:00,84.0,69.6,29.85,North,5,9.0,14.0,62,0.00,,,0.00,Wunderground v.1.15,2013-09-02 00:58:00,
2013-09-01 20:03:00,83.9,69.5,29.85,NNE,13,9.0,12.0,62,0.00,,,0.00,Wunderground v.1.15,2013-09-02 01:03:00,
2013-09-01 20:09:00,83.5,69.6,29.85,NNE,28,9.0,12.0,63,0.00,,,0.00,Wunderground v.1.15,2013-09-02 01:09:00,
2013-09-01 20:14:00,83.2,69.3,29.86,NNE,29,9.0,12.0,63,0.00,,,0.00,Wunderground v.1.15,2013-09-02 01:14:00,
2013-09-01 20:20:00,83.0,69.1,29.86,NNE,17,9.0,9.0,63,0.00,,,0.00,Wunderground v.1.15,2013-09-02 01:20:00,
2013-09-01 20:25:00,82.8,68.9,29.86,NNE,23,10.0,14.0,63,0.00,,,0.00,Wunderground v.1.15,2013-09-02 01:25:00,
2013-09-01 20:31:00,82.6,68.7,29.86,NNE,32,10.0,14.0,63,0.00,,,0.00,Wunderground v.1.15,2013-09-02 01:31:00,
2013-09-01 20:36:00,82.5,68.6,29.87,NNE,13,12.0,16.0,63,0.00,,,0.00,Wunderground v.1.15,2013-09-02 01:36:00,
2013-09-01 20:42:00,82.2,68.3,29.87,NNE,22,11.0,15.0,63,0.00,,,0.00,Wunderground v.1.15,2013-09-02 01:42:00,
2013-09-01 20:47:00,81.9,68.5,29.87,NE,36,10.0,15.0,64,0.00,,,0.00,Wunderground v.1.15,2013-09-02 01:47:00,
2013-09-01 20:53:00,81.7,68.3,29.88,NNE,28,10.0,16.0,64,0.00,,,0.00,Wunderground v.1.15,2013-09-02 01:53:00,
2013-09-01 20:58:00,81.4,68.5,29.88,NE,36,9.0,16.0,65,0.00,,,0.00,Wunderground v.1.15,2013-09-02 01:58:00,
2013-09-01 21:04:00,81.0,68.6,29.89,NE,41,8.0,10.0,66,0.00,,,0.00,Wunderground v.1.15,2013-09-02 02:04:00,
2013-09-01 21:10:00,80.7,68.7,29.89,NE,42,8.0,8.0,67,0.00,,,0.00,Wunderground v.1.15,2013-09-02 02:10:00,
2013-09-01 21:15:00,80.5,68.5,29.89,NE,38,7.0,10.0,67,0.00,,,0.00,Wunderground v.1.15,2013-09-02 02:15:00,
2013-09-01 21:21:00,80.2,68.7,29.90,NNE,26,7.0,10.0,68,0.00,,,0.00,Wunderground v.1.15,2013-09-02 02:21:00,
2013-09-01 21:27:00,80.2,67.8,29.91,NNE,33,10.0,16.0,66,0.00,,,0.00,Wunderground v.1.15,2013-09-02 02:27:00,
2013-09-01 21:32:00,80.2,66.9,29.91,NNE,28,12.0,18.0,64,0.00,,,0.00,Wunderground v.1.15,2013-09-02 02:32:00,
2013-09-01 21:37:00,80.1,66.8,29.91,NE,46,13.0,19.0,64,0.00,,,0.00,Wunderground v.1.15,2013-09-02 02:37:00,
2013-09-01 21:42:00,80.0,66.7,29.92,NNE,33,12.0,13.0,64,0.00,,,0.00,Wunderground v.1.15,2013-09-02 02:42:00,
2013-09-01 21:48:00,79.7,65.5,29.92,NE,38,12.0,17.0,62,0.00,,,0.00,Wunderground v.1.15,2013-09-02 02:48:00,
2013-09-01 21:53:00,79.5,65.3,29.92,NNE,26,12.0,17.0,62,0.00,,,0.00,Wunderground v.1.15,2013-09-02 02:53:00,
2013-09-01 21:59:00,79.2,65.1,29.92,NE,42,11.0,17.0,62,0.00,,,0.00,Wunderground v.1.15,2013-09-02 02:59:00,
2013-09-01 22:04:00,79.1,64.5,29.92,NNE,32,11.0,14.0,61,0.00,,,0.00,Wunderground v.1.15,2013-09-02 03:04:00,
2013-09-01 22:09:00,78.7,64.1,29.92,NE,44,11.0,15.0,61,0.00,,,0.00,Wunderground v.1.15,2013-09-02 03:09:00,
2013-09-01 22:14:00,78.4,63.4,29.93,NNE,31,10.0,15.0,60,0.00,,,0.00,Wunderground v.1.15,2013-09-02 03:14:00,
2013-09-01 22:20:00,78.2,63.2,29.93,NE,38,10.0,13.0,60,0.00,,,0.00,Wunderground v.1.15,2013-09-02 03:20:00,
2013-09-01 22:25:00,77.9,62.9,29.93,NNE,31,10.0,13.0,60,0.00,,,0.00,Wunderground v.1.15,2013-09-02 03:25:00,
2013-09-01 22:31:00,77.5,63.0,29.94,NNE,26,9.0,11.0,61,0.00,,,0.00,Wunderground v.1.15,2013-09-02 03:31:00,
2013-09-01 22:36:00,77.1,62.6,29.94,NE,37,8.0,11.0,61,0.00,,,0.00,Wunderground v.1.15,2013-09-02 03:36:00,
2013-09-01 22:41:00,76.7,62.7,29.94,NE,44,8.0,9.0,62,0.00,,,0.00,Wunderground v.1.15,2013-09-02 03:41:00,
2013-09-01 22:47:00,76.2,62.7,29.94,NE,38,7.0,9.0,63,0.00,,,0.00,Wunderground v.1.15,2013-09-02 03:47:00,
2013-09-01 22:52:00,76.0,62.5,29.94,NE,44,7.0,9.0,63,0.00,,,0.00,Wunderground v.1.15,2013-09-02 03:52:00,
2013-09-01 22:57:00,75.7,62.2,29.95,NE,34,7.0,10.0,63,0.00,,,0.00,Wunderground v.1.15,2013-09-02 03:57:00,
2013-09-01 23:01:00,75.5,62.0,29.95,NE,36,7.0,8.0,63,0.00,,,0.00,Wunderground v.1.15,2013-09-02 04:01:00,
2013-09-01 23:02:00,75.4,61.9,29.95,NE,41,7.0,8.0,63,0.00,,,0.00,Wunderground v.1.15,2013-09-02 04:02:00,
2013-09-01 23:03:00,75.3,61.8,29.95,NE,43,7.0,8.0,63,0.00,,,0.00,Wunderground v.1.15,2013-09-02 04:03:00,
2013-09-01 23:04:00,75.3,61.8,29.95,NE,42,7.0,9.0,63,0.00,,,0.00,Wunderground v.1.15,2013-09-02 04:04:00,
2013-09-01 23:10:00,75.2,61.7,29.95,NNE,30,7.0,9.0,63,0.00,,,0.00,Wunderground v.1.15,2013-09-02 04:10:00,
2013-09-01 23:14:00,75.0,61.5,29.95,NNE,26,7.0,9.0,63,0.00,,,0.00,Wunderground v.1.15,2013-09-02 04:14:00,
2013-09-01 23:15:00,74.9,61.5,29.95,NNE,32,7.0,9.0,63,0.00,,,0.00,Wunderground v.1.15,2013-09-02 04:15:00,
2013-09-01 23:20:00,74.8,61.4,29.95,NE,36,7.0,9.0,63,0.00,,,0.00,Wunderground v.1.15,2013-09-02 04:20:00,
2013-09-01 23:26:00,74.6,61.2,29.95,NNE,26,7.0,10.0,63,0.00,,,0.00,Wunderground v.1.15,2013-09-02 04:26:00,
2013-09-01 23:31:00,74.4,61.4,29.95,NE,34,7.0,8.0,64,0.00,,,0.00,Wunderground v.1.15,2013-09-02 04:31:00,
2013-09-01 23:37:00,74.1,61.1,29.95,NE,42,7.0,9.0,64,0.00,,,0.00,Wunderground v.1.15,2013-09-02 04:37:00,
2013-09-01 23:42:00,73.9,61.4,29.95,NNE,23,7.0,9.0,65,0.00,,,0.00,Wunderground v.1.15,2013-09-02 04:42:00,
2013-09-01 23:48:00,73.8,61.3,29.95,NNE,32,8.0,9.0,65,0.00,,,0.00,Wunderground v.1.15,2013-09-02 04:48:00,
2013-09-01 23:55:00,73.7,61.2,29.96,NE,43,7.0,9.0,65,0.00,,,0.00,Wunderground v.1.15,2013-09-02 04:55:00,